createdAt,value
2022-12-18T00:01:07.015Z,44.20
2022-12-18T00:03:37.961Z,35.43
2022-12-18T00:06:05.475Z,43.40
2022-12-18T00:08:32.624Z,34.97
2022-12-18T00:11:07.013Z,41.20
2022-12-18T00:13:34.420Z,37.63
2022-12-18T00:16:08.956Z,39.57
2022-12-18T00:18:36.403Z,44.10
2022-12-18T00:21:05.425Z,29.97
2022-12-18T00:23:34.395Z,35.90
2022-12-18T00:26:07.236Z,43.63
2022-12-18T00:28:34.318Z,44.00
2022-12-18T00:31:02.541Z,40.07
2022-12-18T00:33:29.729Z,29.13
2022-12-18T00:35:57.051Z,37.27
2022-12-18T00:38:24.122Z,33.27
2022-12-18T00:40:51.341Z,38.63
2022-12-18T00:43:18.440Z,36.40
2022-12-18T00:45:45.566Z,36.43
2022-12-18T00:48:13.049Z,40.10
2022-12-18T00:50:40.167Z,36.00
2022-12-18T00:53:07.350Z,34.13
2022-12-18T00:55:34.501Z,34.40
2022-12-18T00:58:01.598Z,34.70
2022-12-18T01:00:28.681Z,42.03
2022-12-18T01:02:55.896Z,38.70
2022-12-18T01:05:23.014Z,29.63
2022-12-18T01:07:50.210Z,31.77
2022-12-18T01:10:17.326Z,29.53
2022-12-18T01:12:44.397Z,40.30
2022-12-18T01:15:11.759Z,32.40
2022-12-18T01:17:38.833Z,47.00
2022-12-18T01:20:06.204Z,33.87
2022-12-18T01:22:34.460Z,33.17
2022-12-18T01:25:01.577Z,42.33
2022-12-18T01:27:28.658Z,37.83
2022-12-18T01:29:55.829Z,31.67
2022-12-18T01:32:23.051Z,34.33
2022-12-18T01:34:50.208Z,33.23
2022-12-18T01:37:17.364Z,33.00
2022-12-18T01:39:44.425Z,31.70
2022-12-18T01:42:15.017Z,36.50
2022-12-18T01:44:57.590Z,28.30
2022-12-18T01:47:24.682Z,32.47
2022-12-18T01:49:51.818Z,28.77
2022-12-18T01:52:18.985Z,29.47
2022-12-18T01:54:46.164Z,24.90
2022-12-18T01:57:13.253Z,32.30
2022-12-18T01:59:40.416Z,34.67
2022-12-18T02:02:08.384Z,29.70
2022-12-18T02:04:35.582Z,20.13
2022-12-18T02:07:08.773Z,32.17
2022-12-18T02:09:37.300Z,29.13
2022-12-18T02:12:10.589Z,37.50
2022-12-18T02:14:40.344Z,23.13
2022-12-18T02:17:13.346Z,34.57
2022-12-18T02:19:49.376Z,32.83
2022-12-18T02:22:16.561Z,34.13
2022-12-18T02:25:15.981Z,30.07
2022-12-18T02:27:43.258Z,35.93
2022-12-18T02:30:10.566Z,30.33
2022-12-18T02:32:39.836Z,25.10
2022-12-18T02:35:07.592Z,29.47
2022-12-18T02:37:35.145Z,35.33
2022-12-18T02:40:02.293Z,33.77
2022-12-18T02:42:29.403Z,44.53
2022-12-18T02:44:56.504Z,40.07
2022-12-18T02:47:24.432Z,40.00
2022-12-18T02:49:54.634Z,28.33
2022-12-18T02:52:40.329Z,31.23
2022-12-18T02:55:26.147Z,29.77
2022-12-18T02:57:55.653Z,31.77
2022-12-18T03:00:28.851Z,33.73
2022-12-18T03:02:56.057Z,28.77
2022-12-18T03:05:36.974Z,30.07
2022-12-18T03:08:04.044Z,36.73
2022-12-18T03:10:31.531Z,37.20
2022-12-18T03:13:09.846Z,36.80
2022-12-18T03:15:37.816Z,34.10
2022-12-18T03:18:06.549Z,30.00
2022-12-18T03:20:33.979Z,26.60
2022-12-18T03:23:25.564Z,24.30
2022-12-18T03:25:54.091Z,19.37
2022-12-18T03:28:21.874Z,30.57
2022-12-18T03:30:49.363Z,23.37
2022-12-18T03:33:27.505Z,27.03
2022-12-18T03:35:54.600Z,22.13
2022-12-18T03:38:21.672Z,21.83
2022-12-18T03:40:58.213Z,23.17
2022-12-18T03:43:28.418Z,22.97
2022-12-18T03:46:05.940Z,22.43
2022-12-18T03:48:46.359Z,24.07
2022-12-18T03:51:16.624Z,26.87
2022-12-18T03:53:46.728Z,25.90
2022-12-18T03:56:13.935Z,29.27
2022-12-18T03:58:41.004Z,26.20
2022-12-18T04:01:09.508Z,36.87
2022-12-18T04:03:36.663Z,32.43
2022-12-18T04:06:03.934Z,37.93
2022-12-18T04:08:32.292Z,27.10
2022-12-18T04:10:59.432Z,34.07
2022-12-18T04:13:26.994Z,31.17
2022-12-18T04:15:54.188Z,34.43
2022-12-18T04:18:21.348Z,34.63
2022-12-18T04:20:48.470Z,36.90
2022-12-18T04:23:15.563Z,26.90
2022-12-18T04:25:42.678Z,36.37
2022-12-18T04:28:09.866Z,37.47
2022-12-18T04:30:36.956Z,34.00
2022-12-18T04:33:04.083Z,29.57
2022-12-18T04:35:31.314Z,29.83
2022-12-18T04:37:58.405Z,22.20
2022-12-18T04:40:25.472Z,27.10
2022-12-18T04:42:52.712Z,29.00
2022-12-18T04:45:19.796Z,32.47
2022-12-18T04:47:46.890Z,26.23
2022-12-18T04:50:14.117Z,28.30
2022-12-18T04:52:41.225Z,33.00
2022-12-18T04:55:08.482Z,30.37
2022-12-18T04:57:35.630Z,34.67
2022-12-18T05:00:02.776Z,32.03
2022-12-18T05:02:29.969Z,35.23
2022-12-18T05:04:57.179Z,29.30
2022-12-18T05:07:24.327Z,31.67
2022-12-18T05:09:51.430Z,29.43
2022-12-18T05:12:18.552Z,26.73
2022-12-18T05:14:45.626Z,33.93
2022-12-18T05:17:12.714Z,28.57
2022-12-18T05:19:39.821Z,27.40
2022-12-18T05:22:06.926Z,27.93
2022-12-18T05:24:34.068Z,29.67
2022-12-18T05:27:01.186Z,27.37
2022-12-18T05:29:28.363Z,27.40
2022-12-18T05:31:55.536Z,31.53
2022-12-18T05:34:22.694Z,30.60
2022-12-18T05:36:49.818Z,27.60
2022-12-18T05:39:16.912Z,28.87
2022-12-18T05:41:44.016Z,35.50
2022-12-18T05:44:11.340Z,31.30
2022-12-18T05:46:38.557Z,29.57
2022-12-18T05:49:05.758Z,28.67
2022-12-18T05:51:32.841Z,32.90
2022-12-18T05:53:59.958Z,36.47
2022-12-18T05:56:27.053Z,23.40
2022-12-18T05:58:54.503Z,26.57
2022-12-18T06:01:22.780Z,28.27
2022-12-18T06:03:50.510Z,28.80
2022-12-18T06:06:21.843Z,27.27
2022-12-18T06:08:48.991Z,31.07
2022-12-18T06:11:18.399Z,25.90
2022-12-18T06:13:45.465Z,29.17
2022-12-18T06:16:12.647Z,30.33
2022-12-18T06:18:39.838Z,31.07
2022-12-18T06:21:07.214Z,23.93
2022-12-18T06:23:34.353Z,27.67
2022-12-18T06:26:05.068Z,27.40
2022-12-18T06:28:32.163Z,22.77
2022-12-18T06:30:59.227Z,27.33
2022-12-18T06:33:28.067Z,33.27
2022-12-18T06:36:00.792Z,24.97
2022-12-18T06:38:28.148Z,24.27
2022-12-18T06:40:55.310Z,25.33
2022-12-18T06:43:22.406Z,24.43
2022-12-18T06:45:53.621Z,22.30
2022-12-18T06:48:21.202Z,34.80
2022-12-18T06:50:48.413Z,33.77
2022-12-18T06:53:15.816Z,31.20
2022-12-18T06:55:42.896Z,25.60
2022-12-18T06:58:10.182Z,30.47
2022-12-18T07:00:38.524Z,27.03
2022-12-18T07:03:05.650Z,28.33
2022-12-18T07:05:32.748Z,22.10
2022-12-18T07:08:00.206Z,25.33
2022-12-18T07:10:27.369Z,30.23
2022-12-18T07:12:54.526Z,24.50
2022-12-18T07:15:21.623Z,28.67
2022-12-18T07:17:48.718Z,22.77
2022-12-18T07:20:15.868Z,25.50
2022-12-18T07:22:42.953Z,26.53
2022-12-18T07:25:10.174Z,29.63
2022-12-18T07:27:37.261Z,26.53
2022-12-18T07:30:04.777Z,27.00
2022-12-18T07:32:32.116Z,22.47
2022-12-18T07:34:59.194Z,32.27
2022-12-18T07:37:26.284Z,28.50
2022-12-18T07:39:53.385Z,27.80
2022-12-18T07:42:32.459Z,20.10
2022-12-18T07:45:02.693Z,26.10
2022-12-18T07:47:30.098Z,20.13
2022-12-18T07:49:58.004Z,26.77
2022-12-18T07:52:26.532Z,22.00
2022-12-18T07:54:53.707Z,25.33
2022-12-18T07:57:49.028Z,25.00
2022-12-18T08:00:08.936Z,31.20
2022-12-18T08:02:36.134Z,26.73
2022-12-18T08:05:03.638Z,26.43
2022-12-18T08:07:30.706Z,34.07
2022-12-18T08:09:58.278Z,23.33
2022-12-18T08:12:25.377Z,24.80
2022-12-18T08:14:52.468Z,24.40
2022-12-18T08:17:20.708Z,26.47
2022-12-18T08:19:47.822Z,26.23
2022-12-18T08:22:14.951Z,26.67
2022-12-18T08:24:42.127Z,27.70
2022-12-18T08:29:56.343Z,29.10
2022-12-18T08:32:23.522Z,28.77
2022-12-18T08:34:50.746Z,24.87
2022-12-18T08:37:17.821Z,34.30
2022-12-18T08:39:44.940Z,28.80
2022-12-18T08:42:30.951Z,29.13
2022-12-18T08:44:58.102Z,28.00
2022-12-18T08:47:26.927Z,27.20
2022-12-18T08:49:54.024Z,24.80
2022-12-18T08:52:21.205Z,28.67
2022-12-18T08:54:48.320Z,31.83
2022-12-18T08:57:15.437Z,29.40
2022-12-18T08:59:42.588Z,25.53
2022-12-18T09:02:11.206Z,25.20
2022-12-18T09:04:38.569Z,27.27
2022-12-18T09:07:05.735Z,31.30
2022-12-18T09:09:32.913Z,30.10
2022-12-18T09:12:00.127Z,32.70
2022-12-18T09:14:27.207Z,26.07
2022-12-18T09:16:54.352Z,25.77
2022-12-18T09:19:21.697Z,25.03
2022-12-18T09:21:49.089Z,15.23
2022-12-18T09:24:16.314Z,23.57
2022-12-18T09:26:45.019Z,21.40
2022-12-18T09:29:14.578Z,25.87
2022-12-18T09:31:42.242Z,23.90
2022-12-18T09:34:09.337Z,21.07
2022-12-18T09:36:36.509Z,26.27
2022-12-18T09:39:07.816Z,22.67
2022-12-18T09:41:38.800Z,28.70
2022-12-18T09:44:17.864Z,25.20
2022-12-18T09:47:05.286Z,27.03
2022-12-18T09:49:32.740Z,27.30
2022-12-18T09:52:02.099Z,25.87
2022-12-18T09:54:37.963Z,26.30
2022-12-18T09:57:05.396Z,30.77
2022-12-18T09:59:40.669Z,29.20
2022-12-18T10:02:15.402Z,32.93
2022-12-18T10:04:42.813Z,38.80
2022-12-18T10:07:36.098Z,29.47
2022-12-18T10:10:06.116Z,33.83
2022-12-18T10:12:45.750Z,28.03
2022-12-18T10:15:12.866Z,23.20
2022-12-18T10:17:58.590Z,23.80
2022-12-18T10:20:27.786Z,27.10
2022-12-18T10:23:13.790Z,22.47
2022-12-18T10:26:10.417Z,18.43
2022-12-18T10:28:40.225Z,28.20
2022-12-18T10:31:08.452Z,23.30
2022-12-18T10:33:35.678Z,27.80
2022-12-18T10:36:03.855Z,26.37
2022-12-18T10:38:32.698Z,28.93
2022-12-18T10:41:03.439Z,22.23
2022-12-18T10:43:40.185Z,38.20
2022-12-18T10:46:10.219Z,25.50
2022-12-18T10:48:49.519Z,29.00
2022-12-18T10:51:22.987Z,25.87
2022-12-18T10:53:53.493Z,24.60
2022-12-18T10:56:21.189Z,23.57
2022-12-18T10:58:56.807Z,30.53
2022-12-18T11:01:23.971Z,27.57
2022-12-18T11:04:01.843Z,30.70
2022-12-18T11:06:29.619Z,24.37
2022-12-18T11:09:00.849Z,22.77
2022-12-18T11:11:27.932Z,25.60
2022-12-18T11:14:08.291Z,22.07
2022-12-18T11:16:36.841Z,21.33
2022-12-18T11:19:24.495Z,21.20
2022-12-18T11:21:51.610Z,23.10
2022-12-18T11:24:21.182Z,27.60
2022-12-18T11:26:49.145Z,24.50
2022-12-18T11:29:18.333Z,26.30
2022-12-18T11:31:47.133Z,26.67
2022-12-18T11:34:31.255Z,27.43
2022-12-18T11:37:00.142Z,22.73
2022-12-18T11:39:47.504Z,27.87
2022-12-18T11:42:17.765Z,27.13
2022-12-18T11:44:44.881Z,25.93
2022-12-18T11:47:14.726Z,25.03
2022-12-18T11:49:43.466Z,27.00
2022-12-18T11:52:36.749Z,23.13
2022-12-18T11:55:09.615Z,25.77
2022-12-18T11:57:38.830Z,22.37
2022-12-18T12:00:16.957Z,24.00
2022-12-18T12:03:16.739Z,28.50
2022-12-18T12:05:51.166Z,23.77
2022-12-18T12:08:28.197Z,24.23
2022-12-18T12:10:55.263Z,24.00
2022-12-18T12:13:31.252Z,23.20
2022-12-18T12:16:13.522Z,24.50
2022-12-18T12:19:00.597Z,26.50
2022-12-18T12:21:30.530Z,20.30
2022-12-18T12:23:57.604Z,24.73
2022-12-18T12:26:43.153Z,19.37
2022-12-18T12:29:30.520Z,21.70
2022-12-18T12:32:09.235Z,19.97
2022-12-18T12:34:39.345Z,22.77
2022-12-18T12:37:06.423Z,23.80
2022-12-18T12:39:35.309Z,23.57
2022-12-18T12:42:21.249Z,29.10
2022-12-18T12:44:55.657Z,25.53
2022-12-18T12:47:33.924Z,26.77
2022-12-18T12:50:01.928Z,22.27
2022-12-18T12:52:30.050Z,27.37
2022-12-18T12:54:57.358Z,28.17
2022-12-18T12:57:43.900Z,22.93
2022-12-18T13:00:12.093Z,25.70
2022-12-18T13:02:58.539Z,29.43
2022-12-18T13:05:25.701Z,27.53
2022-12-18T13:07:55.860Z,22.53
2022-12-18T13:10:27.076Z,17.70
2022-12-18T13:12:58.228Z,18.00
2022-12-18T13:15:25.439Z,26.07
2022-12-18T13:18:06.596Z,24.97
2022-12-18T13:20:46.600Z,26.37
2022-12-18T13:23:27.325Z,21.80
2022-12-18T13:25:54.422Z,24.40
2022-12-18T13:28:40.274Z,22.57
2022-12-18T13:31:07.361Z,20.90
2022-12-18T13:34:02.186Z,23.47
2022-12-18T13:36:32.324Z,20.73
2022-12-18T13:39:23.269Z,20.53
2022-12-18T13:41:55.201Z,21.40
2022-12-18T13:44:22.256Z,29.27
2022-12-18T13:46:49.741Z,22.80
2022-12-18T13:49:23.044Z,24.80
2022-12-18T13:51:51.201Z,22.77
2022-12-18T13:54:21.097Z,22.47
2022-12-18T13:56:48.657Z,19.90
2022-12-18T13:59:17.107Z,21.90
2022-12-18T14:01:49.368Z,22.43
2022-12-18T14:04:20.591Z,23.27
2022-12-18T14:06:48.416Z,23.97
2022-12-18T14:09:21.337Z,26.40
2022-12-18T14:11:49.429Z,21.70
2022-12-18T14:14:17.538Z,24.83
2022-12-18T14:16:44.711Z,22.13
2022-12-18T14:19:16.682Z,27.47
2022-12-18T14:21:47.230Z,26.03
2022-12-18T14:24:18.284Z,29.80
2022-12-18T14:26:46.795Z,31.67
2022-12-18T14:29:21.565Z,29.50
2022-12-18T14:31:52.759Z,23.67
2022-12-18T14:34:20.522Z,25.60
2022-12-18T14:36:54.940Z,20.20
2022-12-18T14:39:22.086Z,21.23
2022-12-18T14:41:52.623Z,24.50
2022-12-18T14:44:19.763Z,27.13
2022-12-18T14:46:47.159Z,25.77
2022-12-18T14:49:28.717Z,22.37
2022-12-18T14:51:59.586Z,24.10
2022-12-18T14:54:27.041Z,24.53
2022-12-18T14:57:07.854Z,21.00
2022-12-18T14:59:35.008Z,25.33
2022-12-18T15:02:05.541Z,19.57
2022-12-18T15:04:44.997Z,20.27
2022-12-18T15:07:24.630Z,23.20
2022-12-18T15:10:10.236Z,20.90
2022-12-18T15:12:46.696Z,23.33
2022-12-18T15:15:32.863Z,22.53
2022-12-18T15:18:03.590Z,23.07
2022-12-18T15:20:34.335Z,30.63
2022-12-18T15:23:01.528Z,25.30
2022-12-18T15:25:37.665Z,22.43
2022-12-18T15:28:05.141Z,22.93
2022-12-18T15:30:32.458Z,22.47
2022-12-18T15:33:19.016Z,24.20
2022-12-18T15:35:47.310Z,31.70
2022-12-18T15:38:14.689Z,21.23
2022-12-18T15:40:41.856Z,24.07
2022-12-18T15:43:28.762Z,22.97
2022-12-18T15:45:56.012Z,22.27
2022-12-18T15:48:23.887Z,22.93
2022-12-18T15:50:54.458Z,21.27
2022-12-18T15:53:21.712Z,27.57
2022-12-18T15:56:07.612Z,21.07
2022-12-18T15:58:35.832Z,24.73
2022-12-18T16:01:03.014Z,22.93
2022-12-18T16:03:30.239Z,22.70
2022-12-18T16:05:59.315Z,24.50
2022-12-18T16:08:27.180Z,23.13
2022-12-18T16:10:54.293Z,25.33
2022-12-18T16:13:21.423Z,29.83
2022-12-18T16:15:48.572Z,26.73
2022-12-18T16:18:15.693Z,20.83
2022-12-18T16:20:42.820Z,22.07
2022-12-18T16:23:09.981Z,24.00
2022-12-18T16:25:37.083Z,26.27
2022-12-18T16:28:04.191Z,31.40
2022-12-18T16:30:34.883Z,31.10
2022-12-18T16:33:05.523Z,30.57
2022-12-18T16:35:34.741Z,28.70
2022-12-18T16:38:01.835Z,23.37
2022-12-18T16:40:29.018Z,24.40
2022-12-18T16:42:56.169Z,21.00
2022-12-18T16:45:23.271Z,24.50
2022-12-18T16:47:50.404Z,25.73
2022-12-18T16:50:17.517Z,19.70
2022-12-18T16:52:44.648Z,25.10
2022-12-18T16:55:11.802Z,26.37
2022-12-18T16:57:38.930Z,26.27
2022-12-18T17:00:06.436Z,20.50
2022-12-18T17:02:33.984Z,23.03
2022-12-18T17:05:01.271Z,25.60
2022-12-18T17:07:28.952Z,19.87
2022-12-18T17:09:56.126Z,21.43
2022-12-18T17:12:23.387Z,20.73
2022-12-18T17:14:50.673Z,23.60
2022-12-18T17:17:22.548Z,26.27
2022-12-18T17:19:50.606Z,22.77
2022-12-18T17:22:17.770Z,27.20
2022-12-18T17:24:44.879Z,29.60
2022-12-18T17:27:11.979Z,26.40
2022-12-18T17:29:43.883Z,25.87
2022-12-18T17:32:13.833Z,24.33
2022-12-18T17:34:41.017Z,22.80
2022-12-18T17:37:08.290Z,24.93
2022-12-18T17:39:35.380Z,26.30
2022-12-18T17:42:02.597Z,24.30
2022-12-18T17:44:29.738Z,33.30
2022-12-18T17:46:56.881Z,27.57
2022-12-18T17:49:23.981Z,26.40
2022-12-18T17:51:51.512Z,25.80
2022-12-18T17:54:18.761Z,29.10
2022-12-18T17:56:45.830Z,26.50
2022-12-18T17:59:13.572Z,28.20
2022-12-18T18:01:44.435Z,21.60
2022-12-18T18:04:12.401Z,27.13
2022-12-18T18:06:39.667Z,25.77
2022-12-18T18:09:07.275Z,25.53
2022-12-18T18:12:01.749Z,21.20
2022-12-18T18:14:28.844Z,22.47
2022-12-18T18:16:56.877Z,28.17
2022-12-18T18:19:29.822Z,28.00
2022-12-18T18:21:56.954Z,28.23
2022-12-18T18:24:24.255Z,24.87
2022-12-18T18:26:51.406Z,30.77
2022-12-18T18:29:19.455Z,33.47
2022-12-18T18:31:47.365Z,27.10
2022-12-18T18:34:24.577Z,22.87
2022-12-18T18:36:52.280Z,27.70
2022-12-18T18:39:19.572Z,29.47
2022-12-18T18:41:48.366Z,28.30
2022-12-18T18:44:16.026Z,35.70
2022-12-18T18:46:43.283Z,28.80
2022-12-18T18:49:10.462Z,22.63
2022-12-18T18:51:37.561Z,32.30
2022-12-18T18:54:04.921Z,33.10
2022-12-18T18:59:19.503Z,39.57
2022-12-18T19:01:50.813Z,33.63
2022-12-18T19:04:18.006Z,28.93
2022-12-18T19:06:47.736Z,25.90
2022-12-18T19:09:15.856Z,39.33
2022-12-18T19:12:01.707Z,28.43
2022-12-18T19:14:28.870Z,45.73
2022-12-18T19:16:56.039Z,32.23
2022-12-18T19:19:25.249Z,34.10
2022-12-18T19:21:52.392Z,36.73
2022-12-18T19:24:21.424Z,29.47
2022-12-18T19:26:49.639Z,32.90
2022-12-18T19:29:16.877Z,31.30
2022-12-18T19:31:44.955Z,25.50
2022-12-18T19:34:12.534Z,27.60
2022-12-18T19:36:40.082Z,32.90
2022-12-18T19:39:14.624Z,25.10
2022-12-18T19:41:42.793Z,28.77
2022-12-18T19:44:11.898Z,26.67
2022-12-18T19:46:41.799Z,27.80
2022-12-18T19:49:09.616Z,28.23
2022-12-18T19:51:37.258Z,25.73
2022-12-18T19:54:04.760Z,33.47
2022-12-18T19:56:32.820Z,25.97
2022-12-18T19:58:59.971Z,33.33
2022-12-18T20:01:27.433Z,31.90
2022-12-18T20:03:55.933Z,30.20
2022-12-18T20:06:28.048Z,33.50
2022-12-18T20:08:56.807Z,33.73
2022-12-18T20:11:27.510Z,33.57
2022-12-18T20:13:54.894Z,37.03
2022-12-18T20:16:22.082Z,41.13
2022-12-18T20:18:49.429Z,40.77
2022-12-18T20:21:17.004Z,40.70
2022-12-18T20:23:44.643Z,35.30
2022-12-18T20:26:12.157Z,35.00
2022-12-18T20:28:39.313Z,37.07
2022-12-18T20:31:13.463Z,32.57
2022-12-18T20:33:41.605Z,34.00
2022-12-18T20:36:09.811Z,32.93
2022-12-18T20:38:39.096Z,28.40
2022-12-18T20:41:10.954Z,39.33
2022-12-18T20:43:39.016Z,30.93
2022-12-18T20:46:07.310Z,24.97
2022-12-18T20:48:34.499Z,31.20
2022-12-18T20:51:03.884Z,37.63
2022-12-18T20:53:31.228Z,30.60
2022-12-18T20:55:58.395Z,41.77
2022-12-18T20:58:25.635Z,31.40
2022-12-18T21:01:02.894Z,42.17
2022-12-18T21:03:30.109Z,33.80
2022-12-18T21:05:57.259Z,37.67
2022-12-18T21:08:24.420Z,40.03
2022-12-18T21:10:51.557Z,36.40
2022-12-18T21:13:21.358Z,31.67
2022-12-18T21:15:48.430Z,36.23
2022-12-18T21:18:15.508Z,36.23
2022-12-18T21:20:42.831Z,35.10
2022-12-18T21:23:16.650Z,34.20
2022-12-18T21:25:44.379Z,35.30
2022-12-18T21:28:12.822Z,43.33
2022-12-18T21:30:40.160Z,41.70
2022-12-18T21:33:07.348Z,40.10
2022-12-18T21:35:34.451Z,36.73
2022-12-18T21:38:01.724Z,57.83
2022-12-18T21:40:31.477Z,48.97
2022-12-18T21:43:17.903Z,40.87
2022-12-18T21:45:45.154Z,31.07
2022-12-18T21:48:12.302Z,30.90
2022-12-18T21:50:39.373Z,37.00
2022-12-18T21:53:06.471Z,29.40
2022-12-18T21:55:33.802Z,34.37
2022-12-18T21:58:00.933Z,35.20
2022-12-18T22:00:28.005Z,32.30
2022-12-18T22:03:04.904Z,27.63
2022-12-18T22:05:42.174Z,27.17
2022-12-18T22:08:09.270Z,37.60
2022-12-18T22:10:36.537Z,34.97
2022-12-18T22:13:04.169Z,29.90
2022-12-18T22:15:31.301Z,35.03
2022-12-18T22:18:00.228Z,35.50
2022-12-18T22:20:27.698Z,31.40
2022-12-18T22:22:56.442Z,29.97
2022-12-18T22:25:23.522Z,29.17
2022-12-18T22:28:09.245Z,39.00
2022-12-18T22:30:36.314Z,28.07
2022-12-18T22:33:03.901Z,37.90
2022-12-18T22:35:31.037Z,33.87
2022-12-18T22:38:01.059Z,35.10
2022-12-18T22:40:28.416Z,31.00
2022-12-18T22:42:56.054Z,37.17
2022-12-18T22:45:23.260Z,35.20
2022-12-18T22:47:50.346Z,33.97
2022-12-18T22:50:17.503Z,32.53
2022-12-18T22:52:44.706Z,31.20
2022-12-18T22:55:11.876Z,29.63
2022-12-18T22:57:40.645Z,33.37
2022-12-18T23:00:11.455Z,37.70
2022-12-18T23:02:38.728Z,35.27
2022-12-18T23:05:07.695Z,44.10
2022-12-18T23:07:35.036Z,38.37
2022-12-18T23:10:02.193Z,35.30
2022-12-18T23:12:29.460Z,35.70
2022-12-18T23:14:56.748Z,35.77
2022-12-18T23:17:23.833Z,38.53
2022-12-18T23:19:51.070Z,35.40
2022-12-18T23:22:18.257Z,37.23
2022-12-18T23:24:45.434Z,32.10
2022-12-18T23:27:12.654Z,33.77
2022-12-18T23:29:40.420Z,34.60
2022-12-18T23:32:07.858Z,36.30
2022-12-18T23:34:34.990Z,34.83
2022-12-18T23:37:03.597Z,33.23
2022-12-18T23:39:30.786Z,33.47
2022-12-18T23:41:58.444Z,40.10
2022-12-18T23:44:25.895Z,33.70
2022-12-18T23:46:53.072Z,33.10
2022-12-18T23:49:20.315Z,34.67
2022-12-18T23:51:47.393Z,32.63
2022-12-18T23:54:14.544Z,41.13
2022-12-18T23:56:41.620Z,39.40
2022-12-18T23:59:08.825Z,29.37
